sensor_id;sensor_type;location;lat;lon;timestamp;P1;durP1;ratioP1;P2;durP2;ratioP2
20090;SDS011;10205;49.678;6.560;2022-08-18T00:00:29;4.20;;;3.85;;
20090;SDS011;10205;49.678;6.560;2022-08-18T00:02:58;3.60;;;3.30;;
20090;SDS011;10205;49.678;6.560;2022-08-18T00:05:31;3.80;;;3.50;;
20090;SDS011;10205;49.678;6.560;2022-08-18T00:08:00;3.65;;;3.30;;
20090;SDS011;10205;49.678;6.560;2022-08-18T00:10:28;3.55;;;3.25;;
20090;SDS011;10205;49.678;6.560;2022-08-18T00:12:57;3.60;;;3.35;;
20090;SDS011;10205;49.678;6.560;2022-08-18T00:15:27;3.78;;;3.47;;
20090;SDS011;10205;49.678;6.560;2022-08-18T00:17:54;3.58;;;3.28;;
20090;SDS011;10205;49.678;6.560;2022-08-18T00:20:22;3.92;;;3.63;;
20090;SDS011;10205;49.678;6.560;2022-08-18T00:22:50;3.72;;;3.42;;
20090;SDS011;10205;49.678;6.560;2022-08-18T00:25:20;3.70;;;3.40;;
20090;SDS011;10205;49.678;6.560;2022-08-18T00:27:48;4.43;;;3.70;;
20090;SDS011;10205;49.678;6.560;2022-08-18T00:30:18;3.67;;;3.38;;
20090;SDS011;10205;49.678;6.560;2022-08-18T00:32:49;3.72;;;3.42;;
20090;SDS011;10205;49.678;6.560;2022-08-18T00:35:20;3.45;;;3.15;;
20090;SDS011;10205;49.678;6.560;2022-08-18T00:37:51;3.75;;;3.45;;
20090;SDS011;10205;49.678;6.560;2022-08-18T00:40:22;3.60;;;3.30;;
20090;SDS011;10205;49.678;6.560;2022-08-18T00:42:54;3.58;;;3.30;;
20090;SDS011;10205;49.678;6.560;2022-08-18T00:45:29;3.45;;;3.17;;
20090;SDS011;10205;49.678;6.560;2022-08-18T00:48:00;3.53;;;3.33;;
20090;SDS011;10205;49.678;6.560;2022-08-18T00:50:32;3.38;;;3.08;;
20090;SDS011;10205;49.678;6.560;2022-08-18T00:53:05;3.72;;;3.42;;
20090;SDS011;10205;49.678;6.560;2022-08-18T00:55:38;3.38;;;3.13;;
20090;SDS011;10205;49.678;6.560;2022-08-18T00:58:10;3.65;;;3.38;;
20090;SDS011;10205;49.678;6.560;2022-08-18T01:00:47;3.63;;;3.33;;
20090;SDS011;10205;49.678;6.560;2022-08-18T01:03:17;3.53;;;3.28;;
20090;SDS011;10205;49.678;6.560;2022-08-18T01:05:49;3.63;;;3.33;;
20090;SDS011;10205;49.678;6.560;2022-08-18T01:08:22;3.63;;;3.28;;
20090;SDS011;10205;49.678;6.560;2022-08-18T01:10:50;3.70;;;3.40;;
20090;SDS011;10205;49.678;6.560;2022-08-18T01:13:19;3.70;;;3.10;;
20090;SDS011;10205;49.678;6.560;2022-08-18T01:15:52;3.65;;;3.33;;
20090;SDS011;10205;49.678;6.560;2022-08-18T01:18:19;3.78;;;3.47;;
20090;SDS011;10205;49.678;6.560;2022-08-18T01:21:05;3.58;;;3.28;;
20090;SDS011;10205;49.678;6.560;2022-08-18T01:23:59;3.55;;;3.22;;
20090;SDS011;10205;49.678;6.560;2022-08-18T01:26:33;3.78;;;3.47;;
20090;SDS011;10205;49.678;6.560;2022-08-18T01:29:03;3.15;;;2.95;;
20090;SDS011;10205;49.678;6.560;2022-08-18T01:31:37;3.90;;;3.60;;
20090;SDS011;10205;49.678;6.560;2022-08-18T01:34:06;3.75;;;3.45;;
20090;SDS011;10205;49.678;6.560;2022-08-18T01:36:37;6.85;;;3.80;;
20090;SDS011;10205;49.678;6.560;2022-08-18T01:39:08;3.63;;;3.40;;
20090;SDS011;10205;49.678;6.560;2022-08-18T01:41:38;3.40;;;3.10;;
20090;SDS011;10205;49.678;6.560;2022-08-18T01:44:06;3.60;;;3.30;;
20090;SDS011;10205;49.678;6.560;2022-08-18T01:46:35;3.88;;;3.58;;
20090;SDS011;10205;49.678;6.560;2022-08-18T01:49:06;3.70;;;3.40;;
20090;SDS011;10205;49.678;6.560;2022-08-18T01:51:34;3.58;;;3.25;;
20090;SDS011;10205;49.678;6.560;2022-08-18T01:54:05;3.53;;;3.22;;
20090;SDS011;10205;49.678;6.560;2022-08-18T01:56:38;3.22;;;3.03;;
20090;SDS011;10205;49.678;6.560;2022-08-18T01:59:07;3.63;;;3.33;;
20090;SDS011;10205;49.678;6.560;2022-08-18T02:01:37;3.28;;;3.00;;
20090;SDS011;10205;49.678;6.560;2022-08-18T02:04:08;3.47;;;3.17;;
20090;SDS011;10205;49.678;6.560;2022-08-18T02:06:38;3.75;;;3.45;;
20090;SDS011;10205;49.678;6.560;2022-08-18T02:09:06;3.70;;;3.40;;
20090;SDS011;10205;49.678;6.560;2022-08-18T02:11:35;3.33;;;3.13;;
20090;SDS011;10205;49.678;6.560;2022-08-18T02:14:02;3.50;;;3.25;;
20090;SDS011;10205;49.678;6.560;2022-08-18T02:16:29;4.10;;;3.70;;
20090;SDS011;10205;49.678;6.560;2022-08-18T02:18:57;4.00;;;3.70;;
20090;SDS011;10205;49.678;6.560;2022-08-18T02:21:24;3.17;;;2.97;;
20090;SDS011;10205;49.678;6.560;2022-08-18T02:23:52;3.78;;;3.47;;
20090;SDS011;10205;49.678;6.560;2022-08-18T02:26:20;3.42;;;3.17;;
20090;SDS011;10205;49.678;6.560;2022-08-18T02:28:48;3.55;;;3.25;;
20090;SDS011;10205;49.678;6.560;2022-08-18T02:31:17;4.07;;;3.70;;
20090;SDS011;10205;49.678;6.560;2022-08-18T02:33:48;4.07;;;3.65;;
20090;SDS011;10205;49.678;6.560;2022-08-18T02:36:17;3.85;;;3.55;;
20090;SDS011;10205;49.678;6.560;2022-08-18T02:38:45;4.43;;;4.03;;
20090;SDS011;10205;49.678;6.560;2022-08-18T02:41:13;3.92;;;3.63;;
20090;SDS011;10205;49.678;6.560;2022-08-18T02:43:41;3.58;;;3.28;;
20090;SDS011;10205;49.678;6.560;2022-08-18T02:46:09;4.85;;;3.63;;
20090;SDS011;10205;49.678;6.560;2022-08-18T02:48:36;3.65;;;3.28;;
20090;SDS011;10205;49.678;6.560;2022-08-18T02:51:05;3.55;;;3.25;;
20090;SDS011;10205;49.678;6.560;2022-08-18T02:53:36;4.57;;;3.70;;
20090;SDS011;10205;49.678;6.560;2022-08-18T02:56:06;3.97;;;3.67;;
20090;SDS011;10205;49.678;6.560;2022-08-18T02:58:55;4.28;;;3.97;;
20090;SDS011;10205;49.678;6.560;2022-08-18T03:01:25;4.28;;;3.88;;
20090;SDS011;10205;49.678;6.560;2022-08-18T03:03:56;4.70;;;4.30;;
20090;SDS011;10205;49.678;6.560;2022-08-18T03:06:27;3.88;;;3.58;;
20090;SDS011;10205;49.678;6.560;2022-08-18T03:08:55;3.65;;;3.35;;
20090;SDS011;10205;49.678;6.560;2022-08-18T03:11:23;4.05;;;3.67;;
20090;SDS011;10205;49.678;6.560;2022-08-18T03:13:55;4.15;;;3.75;;
20090;SDS011;10205;49.678;6.560;2022-08-18T03:16:24;4.07;;;3.70;;
20090;SDS011;10205;49.678;6.560;2022-08-18T03:18:52;4.00;;;3.70;;
20090;SDS011;10205;49.678;6.560;2022-08-18T03:21:21;3.97;;;3.67;;
20090;SDS011;10205;49.678;6.560;2022-08-18T03:23:51;3.47;;;3.28;;
20090;SDS011;10205;49.678;6.560;2022-08-18T03:26:21;4.28;;;3.97;;
20090;SDS011;10205;49.678;6.560;2022-08-18T03:28:51;3.63;;;3.33;;
20090;SDS011;10205;49.678;6.560;2022-08-18T03:31:22;4.05;;;3.75;;
20090;SDS011;10205;49.678;6.560;2022-08-18T03:33:51;3.70;;;3.40;;
20090;SDS011;10205;49.678;6.560;2022-08-18T03:36:20;3.80;;;3.50;;
20090;SDS011;10205;49.678;6.560;2022-08-18T03:38:51;4.00;;;3.70;;
20090;SDS011;10205;49.678;6.560;2022-08-18T03:41:20;3.63;;;3.33;;
20090;SDS011;10205;49.678;6.560;2022-08-18T03:43:50;3.97;;;3.67;;
20090;SDS011;10205;49.678;6.560;2022-08-18T03:46:19;3.97;;;3.67;;
20090;SDS011;10205;49.678;6.560;2022-08-18T03:48:49;4.43;;;4.03;;
20090;SDS011;10205;49.678;6.560;2022-08-18T03:51:18;3.80;;;3.50;;
20090;SDS011;10205;49.678;6.560;2022-08-18T03:53:49;4.13;;;3.83;;
20090;SDS011;10205;49.678;6.560;2022-08-18T03:56:21;3.60;;;3.30;;
20090;SDS011;10205;49.678;6.560;2022-08-18T03:58:51;4.13;;;3.72;;
20090;SDS011;10205;49.678;6.560;2022-08-18T04:01:23;5.25;;;4.18;;
20090;SDS011;10205;49.678;6.560;2022-08-18T04:03:55;4.90;;;4.50;;
20090;SDS011;10205;49.678;6.560;2022-08-18T04:06:26;4.90;;;4.50;;
20090;SDS011;10205;49.678;6.560;2022-08-18T04:08:58;4.18;;;3.85;;
20090;SDS011;10205;49.678;6.560;2022-08-18T04:11:29;3.88;;;3.58;;
20090;SDS011;10205;49.678;6.560;2022-08-18T04:14:00;4.00;;;3.70;;
20090;SDS011;10205;49.678;6.560;2022-08-18T04:16:29;4.30;;;3.90;;
20090;SDS011;10205;49.678;6.560;2022-08-18T04:18:58;4.03;;;3.65;;
20090;SDS011;10205;49.678;6.560;2022-08-18T04:21:28;4.00;;;3.70;;
20090;SDS011;10205;49.678;6.560;2022-08-18T04:23:57;3.90;;;3.60;;
20090;SDS011;10205;49.678;6.560;2022-08-18T04:26:28;3.72;;;3.42;;
20090;SDS011;10205;49.678;6.560;2022-08-18T04:28:58;4.65;;;4.25;;
20090;SDS011;10205;49.678;6.560;2022-08-18T04:31:26;4.22;;;3.83;;
20090;SDS011;10205;49.678;6.560;2022-08-18T04:33:56;3.92;;;3.63;;
20090;SDS011;10205;49.678;6.560;2022-08-18T04:36:25;3.80;;;3.50;;
20090;SDS011;10205;49.678;6.560;2022-08-18T04:38:55;4.22;;;3.92;;
20090;SDS011;10205;49.678;6.560;2022-08-18T04:41:22;6.03;;;4.40;;
20090;SDS011;10205;49.678;6.560;2022-08-18T04:43:53;4.03;;;3.72;;
20090;SDS011;10205;49.678;6.560;2022-08-18T04:46:23;4.35;;;3.95;;
20090;SDS011;10205;49.678;6.560;2022-08-18T04:48:52;4.65;;;3.60;;
20090;SDS011;10205;49.678;6.560;2022-08-18T04:51:23;4.20;;;3.90;;
20090;SDS011;10205;49.678;6.560;2022-08-18T04:53:53;4.70;;;4.30;;
20090;SDS011;10205;49.678;6.560;2022-08-18T04:56:21;4.32;;;3.92;;
20090;SDS011;10205;49.678;6.560;2022-08-18T04:58:51;3.97;;;3.67;;
20090;SDS011;10205;49.678;6.560;2022-08-18T05:01:24;4.30;;;3.95;;
20090;SDS011;10205;49.678;6.560;2022-08-18T05:03:57;4.15;;;3.85;;
20090;SDS011;10205;49.678;6.560;2022-08-18T05:06:25;4.00;;;3.70;;
20090;SDS011;10205;49.678;6.560;2022-08-18T05:08:54;4.88;;;4.47;;
20090;SDS011;10205;49.678;6.560;2022-08-18T05:11:25;4.82;;;4.43;;
20090;SDS011;10205;49.678;6.560;2022-08-18T05:13:57;4.47;;;4.07;;
20090;SDS011;10205;49.678;6.560;2022-08-18T05:16:25;5.03;;;4.63;;
20090;SDS011;10205;49.678;6.560;2022-08-18T05:18:54;4.47;;;4.07;;
20090;SDS011;10205;49.678;6.560;2022-08-18T05:21:23;4.32;;;3.92;;
20090;SDS011;10205;49.678;6.560;2022-08-18T05:23:51;4.68;;;4.10;;
20090;SDS011;10205;49.678;6.560;2022-08-18T05:26:18;4.28;;;3.88;;
20090;SDS011;10205;49.678;6.560;2022-08-18T05:28:45;5.00;;;4.50;;
20090;SDS011;10205;49.678;6.560;2022-08-18T05:31:14;4.75;;;4.38;;
20090;SDS011;10205;49.678;6.560;2022-08-18T05:33:43;4.25;;;3.95;;
20090;SDS011;10205;49.678;6.560;2022-08-18T05:36:17;4.00;;;3.70;;
20090;SDS011;10205;49.678;6.560;2022-08-18T05:39:13;4.60;;;4.20;;
20090;SDS011;10205;49.678;6.560;2022-08-18T05:41:49;5.13;;;4.70;;
20090;SDS011;10205;49.678;6.560;2022-08-18T05:44:21;4.15;;;3.85;;
20090;SDS011;10205;49.678;6.560;2022-08-18T05:46:55;4.47;;;4.10;;
20090;SDS011;10205;49.678;6.560;2022-08-18T05:49:29;4.30;;;4.00;;
20090;SDS011;10205;49.678;6.560;2022-08-18T05:51:59;4.75;;;4.30;;
20090;SDS011;10205;49.678;6.560;2022-08-18T05:54:33;6.18;;;5.68;;
20090;SDS011;10205;49.678;6.560;2022-08-18T05:57:26;4.70;;;4.13;;
20090;SDS011;10205;49.678;6.560;2022-08-18T05:59:58;4.25;;;3.85;;
20090;SDS011;10205;49.678;6.560;2022-08-18T06:02:29;4.40;;;4.00;;
20090;SDS011;10205;49.678;6.560;2022-08-18T06:05:03;5.20;;;4.53;;
20090;SDS011;10205;49.678;6.560;2022-08-18T06:07:39;4.70;;;4.30;;
20090;SDS011;10205;49.678;6.560;2022-08-18T06:10:13;4.82;;;4.47;;
20090;SDS011;10205;49.678;6.560;2022-08-18T06:12:42;4.95;;;4.53;;
20090;SDS011;10205;49.678;6.560;2022-08-18T06:15:14;4.95;;;4.55;;
20090;SDS011;10205;49.678;6.560;2022-08-18T06:21:13;7.10;;;6.40;;
20090;SDS011;10205;49.678;6.560;2022-08-18T06:23:55;5.90;;;5.40;;
20090;SDS011;10205;49.678;6.560;2022-08-18T06:26:36;6.15;;;5.55;;
20090;SDS011;10205;49.678;6.560;2022-08-18T06:29:24;6.53;;;5.50;;
20090;SDS011;10205;49.678;6.560;2022-08-18T06:32:07;4.85;;;4.43;;
20090;SDS011;10205;49.678;6.560;2022-08-18T06:34:56;6.28;;;5.68;;
20090;SDS011;10205;49.678;6.560;2022-08-18T06:37:44;4.68;;;4.28;;
20090;SDS011;10205;49.678;6.560;2022-08-18T06:40:48;5.18;;;4.68;;
20090;SDS011;10205;49.678;6.560;2022-08-18T06:43:25;5.50;;;5.00;;
20090;SDS011;10205;49.678;6.560;2022-08-18T06:45:56;5.22;;;4.82;;
20090;SDS011;10205;49.678;6.560;2022-08-18T06:48:24;4.82;;;4.32;;
20090;SDS011;10205;49.678;6.560;2022-08-18T06:51:03;5.82;;;5.32;;
20090;SDS011;10205;49.678;6.560;2022-08-18T06:53:48;5.20;;;4.70;;
20090;SDS011;10205;49.678;6.560;2022-08-18T06:56:21;5.03;;;4.55;;
20090;SDS011;10205;49.678;6.560;2022-08-18T06:59:03;6.20;;;5.22;;
20090;SDS011;10205;49.678;6.560;2022-08-18T07:01:42;6.63;;;6.03;;
20090;SDS011;10205;49.678;6.560;2022-08-18T07:07:14;5.13;;;4.63;;
20090;SDS011;10205;49.678;6.560;2022-08-18T07:09:46;5.03;;;4.60;;
20090;SDS011;10205;49.678;6.560;2022-08-18T07:12:20;6.03;;;5.53;;
20090;SDS011;10205;49.678;6.560;2022-08-18T07:14:52;5.70;;;5.20;;
20090;SDS011;10205;49.678;6.560;2022-08-18T07:17:24;5.15;;;4.75;;
20090;SDS011;10205;49.678;6.560;2022-08-18T07:19:55;6.20;;;4.70;;
20090;SDS011;10205;49.678;6.560;2022-08-18T07:22:27;5.57;;;5.07;;
20090;SDS011;10205;49.678;6.560;2022-08-18T07:24:56;5.30;;;4.90;;
20090;SDS011;10205;49.678;6.560;2022-08-18T07:27:44;5.88;;;5.38;;
20090;SDS011;10205;49.678;6.560;2022-08-18T07:30:24;7.15;;;5.55;;
20090;SDS011;10205;49.678;6.560;2022-08-18T07:32:59;5.53;;;5.00;;
20090;SDS011;10205;49.678;6.560;2022-08-18T07:35:38;5.97;;;5.38;;
20090;SDS011;10205;49.678;6.560;2022-08-18T07:38:14;8.55;;;7.13;;
20090;SDS011;10205;49.678;6.560;2022-08-18T07:40:50;7.75;;;6.70;;
20090;SDS011;10205;49.678;6.560;2022-08-18T07:43:25;6.93;;;6.22;;
20090;SDS011;10205;49.678;6.560;2022-08-18T07:46:09;6.40;;;5.80;;
20090;SDS011;10205;49.678;6.560;2022-08-18T07:48:45;5.75;;;5.25;;
20090;SDS011;10205;49.678;6.560;2022-08-18T07:51:17;7.35;;;5.88;;
20090;SDS011;10205;49.678;6.560;2022-08-18T07:53:51;7.90;;;6.15;;
20090;SDS011;10205;49.678;6.560;2022-08-18T07:56:31;6.32;;;5.72;;
20090;SDS011;10205;49.678;6.560;2022-08-18T07:59:11;7.07;;;6.38;;
20090;SDS011;10205;49.678;6.560;2022-08-18T08:01:57;8.30;;;6.78;;
20090;SDS011;10205;49.678;6.560;2022-08-18T08:04:47;7.80;;;6.68;;
20090;SDS011;10205;49.678;6.560;2022-08-18T08:07:28;6.90;;;6.22;;
20090;SDS011;10205;49.678;6.560;2022-08-18T08:13:03;9.05;;;7.88;;
20090;SDS011;10205;49.678;6.560;2022-08-18T08:15:47;8.10;;;7.30;;
20090;SDS011;10205;49.678;6.560;2022-08-18T08:18:30;7.47;;;6.78;;
20090;SDS011;10205;49.678;6.560;2022-08-18T08:21:08;9.48;;;8.35;;
20090;SDS011;10205;49.678;6.560;2022-08-18T08:23:44;10.32;;;8.40;;
20090;SDS011;10205;49.678;6.560;2022-08-18T08:26:22;7.72;;;6.88;;
20090;SDS011;10205;49.678;6.560;2022-08-18T08:29:08;7.50;;;6.80;;
20090;SDS011;10205;49.678;6.560;2022-08-18T08:31:55;8.52;;;6.38;;
20090;SDS011;10205;49.678;6.560;2022-08-18T08:34:30;7.25;;;6.55;;
20090;SDS011;10205;49.678;6.560;2022-08-18T08:37:08;9.52;;;8.23;;
20090;SDS011;10205;49.678;6.560;2022-08-18T08:39:44;9.20;;;8.27;;
20090;SDS011;10205;49.678;6.560;2022-08-18T08:42:22;10.38;;;9.38;;
20090;SDS011;10205;49.678;6.560;2022-08-18T08:45:05;7.57;;;6.90;;
20090;SDS011;10205;49.678;6.560;2022-08-18T08:47:41;11.52;;;9.27;;
20090;SDS011;10205;49.678;6.560;2022-08-18T08:50:22;8.90;;;7.93;;
20090;SDS011;10205;49.678;6.560;2022-08-18T08:52:54;8.10;;;7.40;;
20090;SDS011;10205;49.678;6.560;2022-08-18T08:55:27;8.88;;;8.07;;
20090;SDS011;10205;49.678;6.560;2022-08-18T08:58:01;9.52;;;8.35;;
20090;SDS011;10205;49.678;6.560;2022-08-18T09:00:43;8.13;;;7.35;;
20090;SDS011;10205;49.678;6.560;2022-08-18T09:03:21;7.43;;;6.60;;
20090;SDS011;10205;49.678;6.560;2022-08-18T09:06:04;8.13;;;7.43;;
20090;SDS011;10205;49.678;6.560;2022-08-18T09:08:53;8.43;;;7.63;;
20090;SDS011;10205;49.678;6.560;2022-08-18T09:15:15;9.00;;;8.20;;
20090;SDS011;10205;49.678;6.560;2022-08-18T09:21:18;10.55;;;9.45;;
20090;SDS011;10205;49.678;6.560;2022-08-18T09:24:03;10.30;;;9.30;;
20090;SDS011;10205;49.678;6.560;2022-08-18T09:26:49;9.32;;;8.25;;
20090;SDS011;10205;49.678;6.560;2022-08-18T09:29:45;10.18;;;9.10;;
20090;SDS011;10205;49.678;6.560;2022-08-18T09:32:36;10.20;;;8.85;;
20090;SDS011;10205;49.678;6.560;2022-08-18T09:35:30;11.05;;;8.85;;
20090;SDS011;10205;49.678;6.560;2022-08-18T09:38:20;9.27;;;8.32;;
20090;SDS011;10205;49.678;6.560;2022-08-18T09:41:11;9.27;;;8.38;;
20090;SDS011;10205;49.678;6.560;2022-08-18T09:43:58;9.25;;;8.35;;
20090;SDS011;10205;49.678;6.560;2022-08-18T09:49:49;9.88;;;8.13;;
20090;SDS011;10205;49.678;6.560;2022-08-18T10:04:17;9.57;;;8.55;;
20090;SDS011;10205;49.678;6.560;2022-08-18T10:06:54;13.18;;;10.45;;
20090;SDS011;10205;49.678;6.560;2022-08-18T10:09:48;10.40;;;9.23;;
20090;SDS011;10205;49.678;6.560;2022-08-18T10:15:44;12.70;;;11.00;;
20090;SDS011;10205;49.678;6.560;2022-08-18T10:18:37;13.00;;;10.65;;
20090;SDS011;10205;49.678;6.560;2022-08-18T10:21:26;11.75;;;10.55;;
20090;SDS011;10205;49.678;6.560;2022-08-18T10:23:57;11.27;;;10.27;;
20090;SDS011;10205;49.678;6.560;2022-08-18T10:29:58;11.15;;;9.85;;
20090;SDS011;10205;49.678;6.560;2022-08-18T10:32:36;9.68;;;8.88;;
20090;SDS011;10205;49.678;6.560;2022-08-18T10:41:18;11.02;;;9.48;;
20090;SDS011;10205;49.678;6.560;2022-08-18T10:43:52;11.02;;;9.95;;
20090;SDS011;10205;49.678;6.560;2022-08-18T10:46:22;11.45;;;10.43;;
20090;SDS011;10205;49.678;6.560;2022-08-18T10:48:56;10.93;;;9.82;;
20090;SDS011;10205;49.678;6.560;2022-08-18T10:51:31;10.25;;;9.18;;
20090;SDS011;10205;49.678;6.560;2022-08-18T10:54:19;9.32;;;8.43;;
20090;SDS011;10205;49.678;6.560;2022-08-18T10:57:04;10.65;;;9.57;;
20090;SDS011;10205;49.678;6.560;2022-08-18T10:59:42;10.90;;;9.95;;
20090;SDS011;10205;49.678;6.560;2022-08-18T11:02:32;10.68;;;9.63;;
20090;SDS011;10205;49.678;6.560;2022-08-18T11:05:36;9.27;;;8.38;;
20090;SDS011;10205;49.678;6.560;2022-08-18T11:08:05;9.77;;;8.77;;
20090;SDS011;10205;49.678;6.560;2022-08-18T11:10:42;8.25;;;7.53;;
20090;SDS011;10205;49.678;6.560;2022-08-18T11:13:16;9.80;;;8.90;;
20090;SDS011;10205;49.678;6.560;2022-08-18T11:15:57;8.55;;;7.70;;
20090;SDS011;10205;49.678;6.560;2022-08-18T11:18:39;8.75;;;7.78;;
20090;SDS011;10205;49.678;6.560;2022-08-18T11:21:24;8.20;;;7.38;;
20090;SDS011;10205;49.678;6.560;2022-08-18T11:24:02;8.38;;;7.68;;
20090;SDS011;10205;49.678;6.560;2022-08-18T11:26:36;8.20;;;7.50;;
20090;SDS011;10205;49.678;6.560;2022-08-18T11:29:16;8.45;;;7.63;;
20090;SDS011;10205;49.678;6.560;2022-08-18T11:31:47;8.48;;;7.60;;
20090;SDS011;10205;49.678;6.560;2022-08-18T11:34:20;7.80;;;7.10;;
20090;SDS011;10205;49.678;6.560;2022-08-18T11:36:56;7.50;;;6.85;;
20090;SDS011;10205;49.678;6.560;2022-08-18T11:39:27;7.45;;;6.75;;
20090;SDS011;10205;49.678;6.560;2022-08-18T11:41:56;8.25;;;6.97;;
20090;SDS011;10205;49.678;6.560;2022-08-18T11:44:25;7.30;;;6.70;;
20090;SDS011;10205;49.678;6.560;2022-08-18T11:47:08;7.30;;;6.47;;
20090;SDS011;10205;49.678;6.560;2022-08-18T11:49:47;6.60;;;6.00;;
20090;SDS011;10205;49.678;6.560;2022-08-18T11:52:24;6.13;;;5.60;;
20090;SDS011;10205;49.678;6.560;2022-08-18T11:54:57;7.43;;;6.60;;
20090;SDS011;10205;49.678;6.560;2022-08-18T11:57:29;6.97;;;6.38;;
20090;SDS011;10205;49.678;6.560;2022-08-18T12:03:09;7.10;;;6.45;;
20090;SDS011;10205;49.678;6.560;2022-08-18T12:05:50;7.13;;;6.32;;
20090;SDS011;10205;49.678;6.560;2022-08-18T12:08:22;6.30;;;5.70;;
20090;SDS011;10205;49.678;6.560;2022-08-18T12:11:02;6.90;;;6.30;;
20090;SDS011;10205;49.678;6.560;2022-08-18T12:13:40;6.55;;;5.95;;
20090;SDS011;10205;49.678;6.560;2022-08-18T12:16:11;8.15;;;6.05;;
20090;SDS011;10205;49.678;6.560;2022-08-18T12:18:44;6.70;;;6.10;;
20090;SDS011;10205;49.678;6.560;2022-08-18T12:21:11;6.00;;;5.18;;
20090;SDS011;10205;49.678;6.560;2022-08-18T12:23:39;9.90;;;5.22;;
20090;SDS011;10205;49.678;6.560;2022-08-18T12:26:07;6.18;;;5.60;;
20090;SDS011;10205;49.678;6.560;2022-08-18T12:28:35;6.45;;;5.68;;
20090;SDS011;10205;49.678;6.560;2022-08-18T12:31:03;5.88;;;5.30;;
20090;SDS011;10205;49.678;6.560;2022-08-18T12:33:31;6.57;;;5.50;;
20090;SDS011;10205;49.678;6.560;2022-08-18T12:36:01;6.57;;;5.97;;
20090;SDS011;10205;49.678;6.560;2022-08-18T12:38:29;4.82;;;4.43;;
20090;SDS011;10205;49.678;6.560;2022-08-18T12:40:58;5.80;;;5.18;;
20090;SDS011;10205;49.678;6.560;2022-08-18T12:43:26;5.20;;;4.70;;
20090;SDS011;10205;49.678;6.560;2022-08-18T12:45:53;5.38;;;4.90;;
20090;SDS011;10205;49.678;6.560;2022-08-18T12:48:21;6.65;;;5.97;;
20090;SDS011;10205;49.678;6.560;2022-08-18T12:50:48;7.43;;;6.13;;
20090;SDS011;10205;49.678;6.560;2022-08-18T12:53:16;5.97;;;5.47;;
20090;SDS011;10205;49.678;6.560;2022-08-18T12:55:44;5.90;;;5.40;;
20090;SDS011;10205;49.678;6.560;2022-08-18T12:58:11;5.70;;;5.20;;
20090;SDS011;10205;49.678;6.560;2022-08-18T13:00:38;9.98;;;6.43;;
20090;SDS011;10205;49.678;6.560;2022-08-18T13:03:05;6.30;;;5.70;;
20090;SDS011;10205;49.678;6.560;2022-08-18T13:05:34;6.35;;;5.65;;
20090;SDS011;10205;49.678;6.560;2022-08-18T13:08:02;6.78;;;6.10;;
20090;SDS011;10205;49.678;6.560;2022-08-18T13:10:36;6.60;;;6.07;;
20090;SDS011;10205;49.678;6.560;2022-08-18T13:13:03;6.55;;;5.95;;
20090;SDS011;10205;49.678;6.560;2022-08-18T13:15:30;6.15;;;5.60;;
20090;SDS011;10205;49.678;6.560;2022-08-18T13:17:58;6.00;;;5.50;;
20090;SDS011;10205;49.678;6.560;2022-08-18T13:20:27;6.10;;;5.60;;
20090;SDS011;10205;49.678;6.560;2022-08-18T13:22:54;7.20;;;5.70;;
20090;SDS011;10205;49.678;6.560;2022-08-18T13:25:21;5.88;;;5.38;;
20090;SDS011;10205;49.678;6.560;2022-08-18T13:27:50;6.22;;;5.70;;
20090;SDS011;10205;49.678;6.560;2022-08-18T13:30:20;5.68;;;5.18;;
20090;SDS011;10205;49.678;6.560;2022-08-18T13:32:48;5.70;;;5.20;;
20090;SDS011;10205;49.678;6.560;2022-08-18T13:35:19;6.70;;;6.00;;
20090;SDS011;10205;49.678;6.560;2022-08-18T13:37:46;6.53;;;5.93;;
20090;SDS011;10205;49.678;6.560;2022-08-18T13:40:14;5.93;;;5.38;;
20090;SDS011;10205;49.678;6.560;2022-08-18T13:42:43;6.13;;;5.63;;
20090;SDS011;10205;49.678;6.560;2022-08-18T13:45:15;6.15;;;5.65;;
20090;SDS011;10205;49.678;6.560;2022-08-18T13:47:46;6.28;;;5.57;;
20090;SDS011;10205;49.678;6.560;2022-08-18T13:50:14;6.45;;;5.95;;
20090;SDS011;10205;49.678;6.560;2022-08-18T13:52:42;6.88;;;5.15;;
20090;SDS011;10205;49.678;6.560;2022-08-18T13:55:10;7.68;;;5.50;;
20090;SDS011;10205;49.678;6.560;2022-08-18T13:57:42;6.20;;;5.70;;
20090;SDS011;10205;49.678;6.560;2022-08-18T14:00:13;7.32;;;5.70;;
20090;SDS011;10205;49.678;6.560;2022-08-18T14:02:45;5.82;;;5.32;;
20090;SDS011;10205;49.678;6.560;2022-08-18T14:05:15;6.10;;;5.60;;
20090;SDS011;10205;49.678;6.560;2022-08-18T14:07:42;6.03;;;5.50;;
20090;SDS011;10205;49.678;6.560;2022-08-18T14:10:09;6.65;;;6.15;;
20090;SDS011;10205;49.678;6.560;2022-08-18T14:12:38;6.07;;;5.57;;
20090;SDS011;10205;49.678;6.560;2022-08-18T14:15:08;5.80;;;5.30;;
20090;SDS011;10205;49.678;6.560;2022-08-18T14:17:40;6.43;;;5.93;;
20090;SDS011;10205;49.678;6.560;2022-08-18T14:20:08;5.65;;;5.20;;
20090;SDS011;10205;49.678;6.560;2022-08-18T14:22:57;6.68;;;5.30;;
20090;SDS011;10205;49.678;6.560;2022-08-18T14:25:44;5.82;;;5.32;;
20090;SDS011;10205;49.678;6.560;2022-08-18T14:28:30;6.15;;;5.65;;
20090;SDS011;10205;49.678;6.560;2022-08-18T14:30:59;5.85;;;5.35;;
20090;SDS011;10205;49.678;6.560;2022-08-18T14:33:30;5.97;;;5.47;;
20090;SDS011;10205;49.678;6.560;2022-08-18T14:35:58;6.00;;;5.40;;
20090;SDS011;10205;49.678;6.560;2022-08-18T14:38:25;6.20;;;5.70;;
20090;SDS011;10205;49.678;6.560;2022-08-18T14:40:52;5.85;;;5.35;;
20090;SDS011;10205;49.678;6.560;2022-08-18T14:43:19;5.85;;;5.45;;
20090;SDS011;10205;49.678;6.560;2022-08-18T14:45:47;5.63;;;5.22;;
20090;SDS011;10205;49.678;6.560;2022-08-18T14:48:15;6.20;;;5.55;;
20090;SDS011;10205;49.678;6.560;2022-08-18T14:50:47;6.13;;;5.63;;
20090;SDS011;10205;49.678;6.560;2022-08-18T14:53:21;6.85;;;5.72;;
20090;SDS011;10205;49.678;6.560;2022-08-18T14:55:53;6.40;;;5.60;;
20090;SDS011;10205;49.678;6.560;2022-08-18T14:58:23;6.68;;;6.07;;
20090;SDS011;10205;49.678;6.560;2022-08-18T15:00:53;5.97;;;5.40;;
20090;SDS011;10205;49.678;6.560;2022-08-18T15:03:21;5.97;;;5.47;;
20090;SDS011;10205;49.678;6.560;2022-08-18T15:05:52;5.78;;;5.28;;
20090;SDS011;10205;49.678;6.560;2022-08-18T15:08:19;5.22;;;4.68;;
20090;SDS011;10205;49.678;6.560;2022-08-18T15:10:47;5.80;;;5.30;;
20090;SDS011;10205;49.678;6.560;2022-08-18T15:13:15;6.32;;;5.82;;
20090;SDS011;10205;49.678;6.560;2022-08-18T15:15:42;6.10;;;5.50;;
20090;SDS011;10205;49.678;6.560;2022-08-18T15:18:10;6.25;;;5.65;;
20090;SDS011;10205;49.678;6.560;2022-08-18T15:20:37;7.03;;;6.13;;
20090;SDS011;10205;49.678;6.560;2022-08-18T15:23:20;5.70;;;5.20;;
20090;SDS011;10205;49.678;6.560;2022-08-18T15:26:05;5.47;;;5.07;;
20090;SDS011;10205;49.678;6.560;2022-08-18T15:28:32;5.97;;;5.47;;
20090;SDS011;10205;49.678;6.560;2022-08-18T15:30:59;6.40;;;5.90;;
20090;SDS011;10205;49.678;6.560;2022-08-18T15:33:27;5.80;;;5.30;;
20090;SDS011;10205;49.678;6.560;2022-08-18T15:35:54;6.95;;;5.80;;
20090;SDS011;10205;49.678;6.560;2022-08-18T15:38:23;6.03;;;5.53;;
20090;SDS011;10205;49.678;6.560;2022-08-18T15:40:52;5.40;;;4.90;;
20090;SDS011;10205;49.678;6.560;2022-08-18T15:43:23;6.53;;;5.93;;
20090;SDS011;10205;49.678;6.560;2022-08-18T15:45:53;5.60;;;5.10;;
20090;SDS011;10205;49.678;6.560;2022-08-18T15:48:21;6.07;;;5.57;;
20090;SDS011;10205;49.678;6.560;2022-08-18T15:50:51;6.13;;;5.70;;
20090;SDS011;10205;49.678;6.560;2022-08-18T15:53:20;6.18;;;5.68;;
20090;SDS011;10205;49.678;6.560;2022-08-18T15:55:52;6.18;;;5.68;;
20090;SDS011;10205;49.678;6.560;2022-08-18T15:58:19;6.00;;;5.50;;
20090;SDS011;10205;49.678;6.560;2022-08-18T16:00:46;5.80;;;5.32;;
20090;SDS011;10205;49.678;6.560;2022-08-18T16:03:16;5.93;;;5.20;;
20090;SDS011;10205;49.678;6.560;2022-08-18T16:05:46;6.10;;;5.60;;
20090;SDS011;10205;49.678;6.560;2022-08-18T16:08:18;6.90;;;5.32;;